MQT25T EDDF-LOWI
Flight info
| Callsign | MQT25T |
|---|---|
| Flight time | 0h 45m |
| Altitude | 23000 |
| Route | CINDY Z74 LAMPU Z54 NOMBO Y161 MANAL M736 TULSI |
| Aircraft | A320/M-SDE3FGHIRWY/LB1 |
Departure
| Time | 2026-04-15 21:23 |
|---|---|
| Airport | Frankfurt Main Airport (EDDF) |
Arrival
| Time | 2026-04-15 22:08 |
|---|---|
| Airport | Innsbruck Airport (LOWI) |
| Time | Latitude | Longitude | Altitude | Speed | Heading |
|---|---|---|---|---|---|
| 2026-04-15 20:56 | 50.04533 | 8.56587 | 356 ft | 0 kts | 115° |
| 2026-04-15 21:09 | 50.04540 | 8.56562 | 363 ft | 4 kts | 114° |
| 2026-04-15 21:10 | 50.04551 | 8.56524 | 360 ft | 4 kts | 115° |
| 2026-04-15 21:10 | 50.04563 | 8.56487 | 359 ft | 4 kts | 127° |
| 2026-04-15 21:10 | 50.04580 | 8.56464 | 358 ft | 4 kts | 184° |
| 2026-04-15 21:10 | 50.04586 | 8.56465 | 357 ft | 0 kts | 205° |
| 2026-04-15 21:13 | 50.04584 | 8.56463 | 357 ft | 1 kts | 205° |
| 2026-04-15 21:13 | 50.04566 | 8.56451 | 356 ft | 5 kts | 204° |
| 2026-04-15 21:13 | 50.04527 | 8.56414 | 362 ft | 8 kts | 226° |
| 2026-04-15 21:14 | 50.04499 | 8.56313 | 359 ft | 12 kts | 249° |
| 2026-04-15 21:14 | 50.04466 | 8.56173 | 360 ft | 14 kts | 250° |
| 2026-04-15 21:14 | 50.04429 | 8.56047 | 359 ft | 13 kts | 223° |
| 2026-04-15 21:14 | 50.04352 | 8.56054 | 360 ft | 10 kts | 155° |
| 2026-04-15 21:15 | 50.04282 | 8.56071 | 354 ft | 13 kts | 204° |
| 2026-04-15 21:15 | 50.04237 | 8.55932 | 359 ft | 17 kts | 249° |
| 2026-04-15 21:15 | 50.04193 | 8.55741 | 360 ft | 21 kts | 251° |
| 2026-04-15 21:15 | 50.04139 | 8.55517 | 359 ft | 24 kts | 250° |
| 2026-04-15 21:16 | 50.04078 | 8.55264 | 360 ft | 26 kts | 250° |
| 2026-04-15 21:16 | 50.04013 | 8.54993 | 354 ft | 26 kts | 250° |
| 2026-04-15 21:16 | 50.03944 | 8.54710 | 353 ft | 25 kts | 249° |
| 2026-04-15 21:16 | 50.03890 | 8.54477 | 351 ft | 23 kts | 251° |
| 2026-04-15 21:17 | 50.03834 | 8.54313 | 351 ft | 18 kts | 234° |
| 2026-04-15 21:17 | 50.03776 | 8.54128 | 351 ft | 21 kts | 250° |
| 2026-04-15 21:17 | 50.03723 | 8.53896 | 343 ft | 25 kts | 251° |
| 2026-04-15 21:17 | 50.03660 | 8.53648 | 345 ft | 24 kts | 248° |
| 2026-04-15 21:18 | 50.03598 | 8.53389 | 338 ft | 27 kts | 250° |
| 2026-04-15 21:18 | 50.03538 | 8.53143 | 338 ft | 20 kts | 250° |
| 2026-04-15 21:18 | 50.03500 | 8.52984 | 334 ft | 12 kts | 249° |
| 2026-04-15 21:18 | 50.03462 | 8.52839 | 335 ft | 16 kts | 245° |
| 2026-04-15 21:19 | 50.03434 | 8.52736 | 333 ft | 0 kts | 250° |
| 2026-04-15 21:19 | 50.03433 | 8.52732 | 331 ft | 2 kts | 250° |
| 2026-04-15 21:19 | 50.03424 | 8.52690 | 334 ft | 6 kts | 251° |
| 2026-04-15 21:20 | 50.03384 | 8.52606 | 333 ft | 14 kts | 214° |
| 2026-04-15 21:20 | 50.03322 | 8.52594 | 334 ft | 0 kts | 180° |
| 2026-04-15 21:22 | 50.03270 | 8.52595 | 333 ft | 34 kts | 179° |
| 2026-04-15 21:22 | 50.02790 | 8.52601 | 333 ft | 101 kts | 179° |
| 2026-04-15 21:22 | 50.01903 | 8.52611 | 335 ft | 151 kts | 180° |
| 2026-04-15 21:23 | 50.00830 | 8.52611 | 938 ft | 149 kts | 180° |
| 2026-04-15 21:23 | 49.99784 | 8.52620 | 1625 ft | 152 kts | 180° |
| 2026-04-15 21:23 | 49.98734 | 8.52639 | 2262 ft | 156 kts | 181° |
| 2026-04-15 21:23 | 49.97599 | 8.52665 | 2641 ft | 172 kts | 176° |
| 2026-04-15 21:24 | 49.96446 | 8.53468 | 2883 ft | 198 kts | 139° |
| 2026-04-15 21:24 | 49.95620 | 8.55331 | 3124 ft | 224 kts | 120° |
| 2026-04-15 21:24 | 49.94854 | 8.57537 | 3665 ft | 235 kts | 120° |
| 2026-04-15 21:24 | 49.94170 | 8.59857 | 4515 ft | 239 kts | 105° |
| 2026-04-15 21:25 | 49.93947 | 8.62527 | 5024 ft | 262 kts | 95° |
| 2026-04-15 21:25 | 49.93827 | 8.65435 | 5701 ft | 274 kts | 96° |
| 2026-04-15 21:25 | 49.93378 | 8.68318 | 6573 ft | 277 kts | 115° |
| 2026-04-15 21:25 | 49.92359 | 8.70837 | 7410 ft | 278 kts | 134° |
| 2026-04-15 21:26 | 49.90874 | 8.72765 | 8199 ft | 281 kts | 147° |
| 2026-04-15 21:26 | 49.89287 | 8.74579 | 8994 ft | 287 kts | 140° |
| 2026-04-15 21:26 | 49.87946 | 8.76918 | 9764 ft | 295 kts | 125° |
| 2026-04-15 21:26 | 49.86906 | 8.79711 | 10439 ft | 305 kts | 120° |
| 2026-04-15 21:27 | 49.85832 | 8.82696 | 10684 ft | 329 kts | 120° |
| 2026-04-15 21:27 | 49.84676 | 8.85891 | 10876 ft | 351 kts | 120° |
| 2026-04-15 21:27 | 49.83456 | 8.89250 | 11345 ft | 362 kts | 120° |
| 2026-04-15 21:27 | 49.82211 | 8.92677 | 11999 ft | 367 kts | 121° |
| 2026-04-15 21:28 | 49.80953 | 8.96139 | 12679 ft | 371 kts | 121° |
| 2026-04-15 21:28 | 49.79680 | 8.99630 | 13366 ft | 374 kts | 121° |
| 2026-04-15 21:28 | 49.78393 | 9.03156 | 14051 ft | 378 kts | 121° |
| 2026-04-15 21:28 | 49.77096 | 9.06717 | 14650 ft | 382 kts | 120° |
| 2026-04-15 21:29 | 49.76026 | 9.10504 | 15217 ft | 388 kts | 109° |
| 2026-04-15 21:29 | 49.75323 | 9.14548 | 15762 ft | 392 kts | 107° |
| 2026-04-15 21:29 | 49.74311 | 9.18476 | 16285 ft | 394 kts | 119° |
| 2026-04-15 21:29 | 49.72826 | 9.22040 | 16839 ft | 397 kts | 130° |
| 2026-04-15 21:30 | 49.71010 | 9.25271 | 17413 ft | 400 kts | 133° |
| 2026-04-15 21:30 | 49.69164 | 9.28506 | 17986 ft | 404 kts | 133° |
| 2026-04-15 21:30 | 49.67304 | 9.31784 | 18546 ft | 408 kts | 133° |
| 2026-04-15 21:30 | 49.65429 | 9.35093 | 19042 ft | 411 kts | 133° |
| 2026-04-15 21:31 | 49.61450 | 9.41497 | 20081 ft | 415 kts | 143° |
| 2026-04-15 21:31 | 49.59067 | 9.43995 | 20605 ft | 415 kts | 152° |
| 2026-04-15 21:32 | 49.54066 | 9.48562 | 21602 ft | 420 kts | 151° |
| 2026-04-15 21:32 | 49.51539 | 9.50867 | 22084 ft | 423 kts | 151° |
| 2026-04-15 21:32 | 49.49000 | 9.53180 | 22552 ft | 425 kts | 151° |
| 2026-04-15 21:32 | 49.46445 | 9.55503 | 23023 ft | 428 kts | 151° |
| 2026-04-15 21:33 | 49.43876 | 9.57839 | 23484 ft | 431 kts | 151° |
| 2026-04-15 21:33 | 49.41286 | 9.60196 | 23913 ft | 434 kts | 151° |
| 2026-04-15 21:33 | 49.38686 | 9.62561 | 24301 ft | 436 kts | 151° |
| 2026-04-15 21:33 | 49.36068 | 9.64937 | 24668 ft | 439 kts | 151° |
| 2026-04-15 21:34 | 49.33563 | 9.67648 | 25012 ft | 444 kts | 141° |
| 2026-04-15 21:34 | 49.31316 | 9.70924 | 25371 ft | 447 kts | 136° |
| 2026-04-15 21:34 | 49.29143 | 9.74263 | 25722 ft | 450 kts | 136° |
| 2026-04-15 21:34 | 49.26924 | 9.77658 | 26075 ft | 452 kts | 137° |
| 2026-04-15 21:35 | 49.24690 | 9.81064 | 26433 ft | 455 kts | 137° |
| 2026-04-15 21:35 | 49.22440 | 9.84477 | 26795 ft | 457 kts | 137° |
| 2026-04-15 21:35 | 49.20174 | 9.87904 | 27155 ft | 460 kts | 137° |
| 2026-04-15 21:35 | 49.17893 | 9.91353 | 27516 ft | 462 kts | 137° |
| 2026-04-15 21:36 | 49.15603 | 9.94819 | 27857 ft | 465 kts | 137° |
| 2026-04-15 21:36 | 49.13305 | 9.98305 | 28193 ft | 467 kts | 137° |
| 2026-04-15 21:36 | 49.10994 | 10.01807 | 28523 ft | 469 kts | 137° |
| 2026-04-15 21:36 | 49.08673 | 10.05318 | 28916 ft | 470 kts | 137° |
| 2026-04-15 21:37 | 49.06347 | 10.08829 | 29184 ft | 470 kts | 137° |
| 2026-04-15 21:37 | 49.01618 | 10.15695 | 29230 ft | 469 kts | 139° |
| 2026-04-15 21:38 | 48.96807 | 10.22396 | 29232 ft | 469 kts | 139° |
| 2026-04-15 21:38 | 48.91992 | 10.29086 | 29250 ft | 469 kts | 139° |
| 2026-04-15 21:39 | 48.88015 | 10.34682 | 29247 ft | 469 kts | 138° |
| 2026-04-15 21:39 | 48.82473 | 10.42536 | 29243 ft | 469 kts | 137° |
| 2026-04-15 21:40 | 48.77908 | 10.49589 | 29242 ft | 469 kts | 134° |
| 2026-04-15 21:40 | 48.74205 | 10.55685 | 29241 ft | 469 kts | 133° |
| 2026-04-15 21:41 | 48.69780 | 10.62944 | 29240 ft | 469 kts | 134° |
| 2026-04-15 21:41 | 48.65295 | 10.70107 | 29238 ft | 469 kts | 134° |
| 2026-04-15 21:42 | 48.60777 | 10.77233 | 29233 ft | 469 kts | 134° |
| 2026-04-15 21:42 | 48.56266 | 10.84356 | 29219 ft | 469 kts | 134° |
| 2026-04-15 21:43 | 48.51820 | 10.91481 | 29231 ft | 469 kts | 133° |
| 2026-04-15 21:43 | 48.47340 | 10.98638 | 29212 ft | 469 kts | 134° |
| 2026-04-15 21:44 | 48.42811 | 11.05710 | 29212 ft | 469 kts | 134° |
| 2026-04-15 21:44 | 48.38262 | 11.12746 | 29213 ft | 469 kts | 134° |
| 2026-04-15 21:45 | 48.33719 | 11.19794 | 28817 ft | 470 kts | 134° |
| 2026-04-15 21:45 | 48.31438 | 11.23325 | 28264 ft | 470 kts | 134° |
| 2026-04-15 21:45 | 48.29161 | 11.26843 | 27710 ft | 470 kts | 134° |
| 2026-04-15 21:45 | 48.26880 | 11.30362 | 27166 ft | 469 kts | 134° |
| 2026-04-15 21:46 | 48.24577 | 11.33794 | 26636 ft | 465 kts | 136° |
| 2026-04-15 21:46 | 48.22218 | 11.37086 | 26115 ft | 461 kts | 138° |
| 2026-04-15 21:46 | 48.19828 | 11.40266 | 25602 ft | 458 kts | 139° |
| 2026-04-15 21:46 | 48.17434 | 11.43382 | 25099 ft | 454 kts | 139° |
| 2026-04-15 21:47 | 48.15057 | 11.46468 | 24603 ft | 450 kts | 139° |
| 2026-04-15 21:47 | 48.12714 | 11.49545 | 24118 ft | 447 kts | 139° |
| 2026-04-15 21:47 | 48.10400 | 11.52625 | 23608 ft | 443 kts | 139° |
| 2026-04-15 21:47 | 48.08117 | 11.55696 | 23039 ft | 440 kts | 138° |
| 2026-04-15 21:48 | 48.05856 | 11.58743 | 22481 ft | 436 kts | 138° |
| 2026-04-15 21:48 | 48.03617 | 11.61760 | 21934 ft | 432 kts | 138° |
| 2026-04-15 21:48 | 48.01390 | 11.64748 | 21396 ft | 428 kts | 138° |
| 2026-04-15 21:48 | 47.99181 | 11.67696 | 20868 ft | 424 kts | 138° |
| 2026-04-15 21:49 | 47.96987 | 11.70616 | 20352 ft | 421 kts | 138° |
| 2026-04-15 21:49 | 47.94813 | 11.73505 | 19846 ft | 417 kts | 139° |
| 2026-04-15 21:49 | 47.92508 | 11.76099 | 19342 ft | 414 kts | 149° |
| 2026-04-15 21:49 | 47.89952 | 11.78016 | 18849 ft | 410 kts | 159° |
| 2026-04-15 21:50 | 47.87236 | 11.79207 | 18337 ft | 406 kts | 170° |
| 2026-04-15 21:50 | 47.84450 | 11.79652 | 17775 ft | 401 kts | 180° |
| 2026-04-15 21:50 | 47.81674 | 11.79525 | 17217 ft | 397 kts | 183° |
| 2026-04-15 21:50 | 47.78927 | 11.79361 | 16676 ft | 394 kts | 183° |
| 2026-04-15 21:51 | 47.76197 | 11.79206 | 16149 ft | 391 kts | 183° |
| 2026-04-15 21:51 | 47.73495 | 11.79059 | 15627 ft | 387 kts | 183° |
| 2026-04-15 21:51 | 47.70822 | 11.79196 | 15110 ft | 382 kts | 174° |
| 2026-04-15 21:51 | 47.68280 | 11.79996 | 14601 ft | 365 kts | 163° |
| 2026-04-15 21:52 | 47.65943 | 11.81263 | 14106 ft | 350 kts | 160° |
| 2026-04-15 21:52 | 47.63736 | 11.82508 | 13560 ft | 338 kts | 160° |
| 2026-04-15 21:52 | 47.61571 | 11.83719 | 13010 ft | 328 kts | 160° |
| 2026-04-15 21:52 | 47.59464 | 11.84893 | 12461 ft | 320 kts | 160° |
| 2026-04-15 21:53 | 47.57404 | 11.86042 | 11929 ft | 313 kts | 161° |
| 2026-04-15 21:53 | 47.55389 | 11.87165 | 11404 ft | 307 kts | 161° |
| 2026-04-15 21:53 | 47.53413 | 11.88265 | 10953 ft | 299 kts | 161° |
| 2026-04-15 21:53 | 47.51531 | 11.89314 | 10848 ft | 279 kts | 161° |
| 2026-04-15 21:54 | 47.49770 | 11.90297 | 10745 ft | 262 kts | 161° |
| 2026-04-15 21:54 | 47.48117 | 11.91221 | 10651 ft | 247 kts | 161° |
| 2026-04-15 21:54 | 47.46508 | 11.92043 | 10563 ft | 242 kts | 168° |
| 2026-04-15 21:54 | 47.44875 | 11.92457 | 10460 ft | 236 kts | 178° |
| 2026-04-15 21:55 | 47.43242 | 11.92452 | 10328 ft | 233 kts | 188° |
| 2026-04-15 21:55 | 47.41672 | 11.92059 | 10182 ft | 225 kts | 197° |
| 2026-04-15 21:55 | 47.40218 | 11.91326 | 10031 ft | 218 kts | 206° |
| 2026-04-15 21:55 | 47.38883 | 11.90288 | 9874 ft | 216 kts | 213° |
| 2026-04-15 21:56 | 47.37587 | 11.89140 | 9708 ft | 218 kts | 212° |
| 2026-04-15 21:56 | 47.36285 | 11.87995 | 9593 ft | 218 kts | 212° |
| 2026-04-15 21:56 | 47.35027 | 11.86762 | 9501 ft | 216 kts | 221° |
| 2026-04-15 21:56 | 47.33969 | 11.85193 | 9511 ft | 216 kts | 233° |
| 2026-04-15 21:57 | 47.33154 | 11.83341 | 9512 ft | 216 kts | 244° |
| 2026-04-15 21:57 | 47.32545 | 11.81326 | 9500 ft | 216 kts | 249° |
| 2026-04-15 21:57 | 47.32089 | 11.79221 | 9240 ft | 215 kts | 257° |
| 2026-04-15 21:57 | 47.31767 | 11.77082 | 8895 ft | 214 kts | 259° |
| 2026-04-15 21:58 | 47.31473 | 11.74926 | 8560 ft | 213 kts | 259° |
| 2026-04-15 21:58 | 47.31191 | 11.72838 | 8194 ft | 202 kts | 259° |
| 2026-04-15 21:58 | 47.30926 | 11.70887 | 7859 ft | 187 kts | 259° |
| 2026-04-15 21:58 | 47.30683 | 11.69099 | 7562 ft | 174 kts | 258° |
| 2026-04-15 21:59 | 47.30446 | 11.67362 | 7290 ft | 169 kts | 258° |
| 2026-04-15 21:59 | 47.30220 | 11.65704 | 7024 ft | 166 kts | 258° |
| 2026-04-15 21:59 | 47.29997 | 11.64069 | 6774 ft | 159 kts | 258° |
| 2026-04-15 21:59 | 47.29782 | 11.62493 | 6506 ft | 156 kts | 258° |
| 2026-04-15 22:00 | 47.29567 | 11.60923 | 6237 ft | 156 kts | 258° |
| 2026-04-15 22:00 | 47.29352 | 11.59351 | 5967 ft | 156 kts | 258° |
| 2026-04-15 22:00 | 47.29137 | 11.57785 | 5703 ft | 156 kts | 258° |
| 2026-04-15 22:00 | 47.28921 | 11.56216 | 5419 ft | 156 kts | 259° |
| 2026-04-15 22:01 | 47.28705 | 11.54642 | 5136 ft | 157 kts | 259° |
| 2026-04-15 22:01 | 47.28488 | 11.53060 | 4847 ft | 158 kts | 259° |
| 2026-04-15 22:01 | 47.28268 | 11.51468 | 4577 ft | 159 kts | 259° |
| 2026-04-15 22:01 | 47.28049 | 11.49876 | 4324 ft | 158 kts | 259° |
| 2026-04-15 22:02 | 47.27831 | 11.48296 | 4082 ft | 157 kts | 259° |
| 2026-04-15 22:02 | 47.27617 | 11.46743 | 4010 ft | 154 kts | 259° |
| 2026-04-15 22:02 | 47.27385 | 11.45196 | 4120 ft | 156 kts | 249° |
| 2026-04-15 22:02 | 47.26754 | 11.43893 | 4178 ft | 160 kts | 223° |
| 2026-04-15 22:03 | 47.25963 | 11.42771 | 4243 ft | 159 kts | 224° |
| 2026-04-15 22:03 | 47.25184 | 11.41613 | 4217 ft | 159 kts | 226° |
| 2026-04-15 22:03 | 47.24428 | 11.40431 | 4160 ft | 158 kts | 227° |
| 2026-04-15 22:03 | 47.23742 | 11.39174 | 4112 ft | 155 kts | 242° |
| 2026-04-15 22:04 | 47.23415 | 11.37662 | 4268 ft | 156 kts | 264° |
| 2026-04-15 22:04 | 47.23441 | 11.36067 | 4262 ft | 156 kts | 275° |
| 2026-04-15 22:04 | 47.23523 | 11.34479 | 4152 ft | 155 kts | 272° |
| 2026-04-15 22:04 | 47.23576 | 11.32897 | 4064 ft | 155 kts | 271° |
| 2026-04-15 22:05 | 47.23602 | 11.31319 | 3994 ft | 154 kts | 271° |
| 2026-04-15 22:05 | 47.23629 | 11.29784 | 3949 ft | 148 kts | 270° |
| 2026-04-15 22:05 | 47.23629 | 11.28301 | 3974 ft | 146 kts | 270° |
| 2026-04-15 22:05 | 47.23691 | 11.26803 | 3950 ft | 147 kts | 281° |
| 2026-04-15 22:06 | 47.24154 | 11.25488 | 3848 ft | 148 kts | 315° |
| 2026-04-15 22:06 | 47.25056 | 11.24823 | 3545 ft | 145 kts | 351° |
| 2026-04-15 22:06 | 47.25988 | 11.25160 | 3269 ft | 143 kts | 47° |
| 2026-04-15 22:06 | 47.26169 | 11.26501 | 2959 ft | 137 kts | 107° |
| 2026-04-15 22:07 | 47.25816 | 11.27837 | 2798 ft | 143 kts | 111° |
| 2026-04-15 22:07 | 47.25556 | 11.29246 | 2560 ft | 144 kts | 94° |
| 2026-04-15 22:07 | 47.25633 | 11.30705 | 2289 ft | 143 kts | 82° |
| 2026-04-15 22:07 | 47.25775 | 11.32168 | 2065 ft | 145 kts | 80° |
| 2026-04-15 22:08 | 47.25932 | 11.33622 | 1908 ft | 138 kts | 82° |
| 2026-04-15 22:08 | 47.26068 | 11.34824 | 1894 ft | 99 kts | 81° |
| 2026-04-15 22:08 | 47.26102 | 11.35216 | 1904 ft | 8 kts | 111° |
| 2026-04-15 22:08 | 47.26028 | 11.35268 | 1902 ft | 13 kts | 169° |
| 2026-04-15 22:09 | 47.26020 | 11.35270 | 1904 ft | 0 kts | 169° |
| 2026-04-15 22:09 | 47.26009 | 11.35273 | 1893 ft | 6 kts | 170° |
| 2026-04-15 22:09 | 47.25958 | 11.35286 | 1897 ft | 9 kts | 170° |
| 2026-04-15 22:09 | 47.25904 | 11.35252 | 1895 ft | 10 kts | 243° |
| 2026-04-15 22:10 | 47.25888 | 11.35169 | 1897 ft | 5 kts | 226° |
| 2026-04-15 22:10 | 47.25850 | 11.35172 | 1893 ft | 7 kts | 171° |
| 2026-04-15 22:10 | 47.25831 | 11.35177 | 1896 ft | 1 kts | 170° |
| 2026-04-15 22:10 | 47.25828 | 11.35177 | 1897 ft | 0 kts | 171° |